createdAt,value
2022-10-18T00:01:55.996Z,26.23
2022-10-18T00:04:24.359Z,26.30
2022-10-18T00:06:52.730Z,26.00
2022-10-18T00:09:21.046Z,25.27
2022-10-18T00:11:49.440Z,24.73
2022-10-18T00:14:17.927Z,23.00
2022-10-18T00:16:47.617Z,26.27
2022-10-18T00:19:16.167Z,25.67
2022-10-18T00:24:18.030Z,27.90
2022-10-18T00:26:46.527Z,28.63
2022-10-18T00:29:16.785Z,26.93
2022-10-18T00:31:47.074Z,27.73
2022-10-18T00:34:17.459Z,30.43
2022-10-18T00:36:46.292Z,30.60
2022-10-18T00:39:19.051Z,28.87
2022-10-18T00:41:47.864Z,27.83
2022-10-18T00:44:53.657Z,28.60
2022-10-18T00:47:23.575Z,28.80
2022-10-18T00:49:56.114Z,32.13
2022-10-18T00:52:29.714Z,29.27
2022-10-18T00:54:59.266Z,30.07
2022-10-18T00:57:28.252Z,31.10
2022-10-18T00:59:57.132Z,30.97
2022-10-18T01:02:27.465Z,36.63
2022-10-18T01:04:55.844Z,33.47
2022-10-18T01:07:39.420Z,35.97
2022-10-18T01:10:18.047Z,35.10
2022-10-18T01:12:54.874Z,32.10
2022-10-18T01:15:28.200Z,32.47
2022-10-18T01:18:03.309Z,33.33
2022-10-18T01:21:13.206Z,32.40
2022-10-18T01:24:17.343Z,32.27
2022-10-18T01:27:09.911Z,32.27
2022-10-18T01:29:51.397Z,35.97
2022-10-18T01:32:24.216Z,32.70
2022-10-18T01:34:57.458Z,31.20
2022-10-18T01:37:27.106Z,31.10
2022-10-18T01:39:58.461Z,32.07
2022-10-18T01:42:27.531Z,32.33
2022-10-18T01:44:57.230Z,32.10
2022-10-18T01:47:28.524Z,35.50
2022-10-18T01:50:00.098Z,34.73
2022-10-18T01:52:28.626Z,37.70
2022-10-18T01:54:57.965Z,34.80
2022-10-18T01:57:34.377Z,35.90
2022-10-18T02:00:07.711Z,36.83
2022-10-18T02:02:49.315Z,33.90
2022-10-18T02:05:26.223Z,35.07
2022-10-18T02:08:12.366Z,33.70
2022-10-18T02:10:52.256Z,30.97
2022-10-18T02:13:23.517Z,30.20
2022-10-18T02:15:58.719Z,33.03
2022-10-18T02:18:34.509Z,31.07
2022-10-18T02:21:04.644Z,33.60
2022-10-18T02:23:34.896Z,31.83
2022-10-18T02:26:03.310Z,32.23
2022-10-18T02:28:32.390Z,32.87
2022-10-18T02:31:05.763Z,32.90
2022-10-18T02:33:40.747Z,33.00
2022-10-18T02:36:14.392Z,32.07
2022-10-18T02:38:44.468Z,34.27
2022-10-18T02:41:12.991Z,33.30
2022-10-18T02:43:41.256Z,32.80
2022-10-18T02:46:09.510Z,33.10
2022-10-18T02:48:39.235Z,34.00
2022-10-18T02:51:07.917Z,35.00
2022-10-18T02:53:36.139Z,33.03
2022-10-18T02:56:04.723Z,32.70
2022-10-18T02:58:33.087Z,33.80
2022-10-18T03:01:01.414Z,31.80
2022-10-18T03:03:29.800Z,33.40
2022-10-18T03:05:59.687Z,33.07
2022-10-18T03:08:28.049Z,32.20
2022-10-18T03:10:56.313Z,33.47
2022-10-18T03:13:24.746Z,34.50
2022-10-18T03:15:53.080Z,34.83
2022-10-18T03:18:21.412Z,32.20
2022-10-18T03:20:49.723Z,32.37
2022-10-18T03:23:19.496Z,34.17
2022-10-18T03:25:47.902Z,33.73
2022-10-18T03:28:16.274Z,31.73
2022-10-18T03:30:44.658Z,35.30
2022-10-18T03:33:13.002Z,33.53
2022-10-18T03:35:41.514Z,33.40
2022-10-18T03:38:09.947Z,31.27
2022-10-18T03:40:39.644Z,30.97
2022-10-18T03:43:07.996Z,30.37
2022-10-18T03:45:36.232Z,33.27
2022-10-18T03:48:04.940Z,32.00
2022-10-18T03:50:33.331Z,30.47
2022-10-18T03:53:01.592Z,32.13
2022-10-18T03:55:30.004Z,29.73
2022-10-18T03:57:59.799Z,32.77
2022-10-18T04:00:28.115Z,33.20
2022-10-18T04:02:56.461Z,32.90
2022-10-18T04:05:27.716Z,33.90
2022-10-18T04:07:56.143Z,32.43
2022-10-18T04:10:24.954Z,31.33
2022-10-18T04:12:53.376Z,30.40
2022-10-18T04:15:23.080Z,31.80
2022-10-18T04:17:51.572Z,33.43
2022-10-18T04:20:19.905Z,31.90
2022-10-18T04:22:50.387Z,30.37
2022-10-18T04:25:19.216Z,31.30
2022-10-18T04:27:47.619Z,33.20
2022-10-18T04:30:16.104Z,32.40
2022-10-18T04:32:45.818Z,35.07
2022-10-18T04:35:14.341Z,33.67
2022-10-18T04:37:42.590Z,31.90
2022-10-18T04:40:11.908Z,34.37
2022-10-18T04:42:40.395Z,35.70
2022-10-18T04:45:09.643Z,34.60
2022-10-18T04:47:38.060Z,33.90
2022-10-18T04:50:09.273Z,34.57
2022-10-18T04:52:37.637Z,34.07
2022-10-18T04:55:06.773Z,33.83
2022-10-18T04:57:35.183Z,34.27
2022-10-18T05:00:04.055Z,37.40
2022-10-18T05:02:32.662Z,34.87
2022-10-18T05:05:01.142Z,34.83
2022-10-18T05:07:30.787Z,34.67
2022-10-18T05:09:59.074Z,36.50
2022-10-18T05:12:27.427Z,34.27
2022-10-18T05:14:56.791Z,35.40
2022-10-18T05:17:25.360Z,34.77
2022-10-18T05:19:53.661Z,34.50
2022-10-18T05:22:22.018Z,35.40
2022-10-18T05:24:51.743Z,33.80
2022-10-18T05:27:20.152Z,34.37
2022-10-18T05:29:48.414Z,32.23
2022-10-18T05:32:16.813Z,32.53
2022-10-18T05:34:45.217Z,31.20
2022-10-18T05:37:13.845Z,32.20
2022-10-18T05:39:42.251Z,33.40
2022-10-18T05:42:12.048Z,32.53
2022-10-18T05:44:40.380Z,33.27
2022-10-18T05:47:08.655Z,31.73
2022-10-18T05:49:37.055Z,34.90
2022-10-18T05:52:05.706Z,33.97
2022-10-18T05:54:34.035Z,30.63
2022-10-18T05:57:02.365Z,33.73
2022-10-18T05:59:32.048Z,32.97
2022-10-18T06:02:00.455Z,31.83
2022-10-18T06:04:28.862Z,32.50
2022-10-18T06:06:57.451Z,34.97
2022-10-18T06:09:26.172Z,33.23
2022-10-18T06:11:55.457Z,33.30
2022-10-18T06:14:23.726Z,31.23
2022-10-18T06:16:53.592Z,31.50
2022-10-18T06:19:22.158Z,30.63
2022-10-18T06:21:50.961Z,31.87
2022-10-18T06:24:21.592Z,30.70
2022-10-18T06:26:50.456Z,30.93
2022-10-18T06:29:18.987Z,29.30
2022-10-18T06:31:47.410Z,30.50
2022-10-18T06:34:17.187Z,31.23
2022-10-18T06:36:45.565Z,28.40
2022-10-18T06:39:13.906Z,29.07
2022-10-18T06:41:42.320Z,28.43
2022-10-18T06:44:20.922Z,26.60
2022-10-18T06:46:50.381Z,24.40
2022-10-18T06:49:20.416Z,23.57
2022-10-18T06:51:48.888Z,24.37
2022-10-18T06:54:18.698Z,23.90
2022-10-18T06:56:47.728Z,24.17
2022-10-18T06:59:16.107Z,23.73
2022-10-18T07:01:44.652Z,24.60
2022-10-18T07:04:13.158Z,23.77
2022-10-18T07:06:42.925Z,25.23
2022-10-18T07:09:11.202Z,25.60
2022-10-18T07:11:39.708Z,24.57
2022-10-18T07:14:08.790Z,22.97
2022-10-18T07:16:37.983Z,24.20
2022-10-18T07:19:06.292Z,22.93
2022-10-18T07:21:34.694Z,23.90
2022-10-18T07:24:04.633Z,24.17
2022-10-18T07:26:35.885Z,23.67
2022-10-18T07:29:08.223Z,22.90
2022-10-18T07:31:38.463Z,24.00
2022-10-18T07:34:07.528Z,22.87
2022-10-18T07:36:35.968Z,23.33
2022-10-18T07:39:06.146Z,22.87
2022-10-18T07:41:34.659Z,23.23
2022-10-18T07:44:03.422Z,23.00
2022-10-18T07:46:32.232Z,22.60
2022-10-18T07:49:00.529Z,21.30
2022-10-18T07:51:30.952Z,22.60
2022-10-18T07:53:59.234Z,22.20
2022-10-18T07:56:29.172Z,22.70
2022-10-18T07:58:57.982Z,22.13
2022-10-18T08:01:26.939Z,21.00
2022-10-18T08:03:55.590Z,20.70
2022-10-18T08:06:24.467Z,20.40
2022-10-18T08:08:53.695Z,20.73
2022-10-18T08:11:24.059Z,21.80
2022-10-18T08:13:54.696Z,23.10
2022-10-18T08:16:25.120Z,25.10
2022-10-18T08:18:54.071Z,24.07
2022-10-18T08:21:23.005Z,23.17
2022-10-18T08:23:51.526Z,23.60
2022-10-18T08:26:22.679Z,26.00
2022-10-18T08:29:10.270Z,26.70
2022-10-18T08:31:41.713Z,25.77
2022-10-18T08:34:10.115Z,27.70
2022-10-18T08:36:39.156Z,25.17
2022-10-18T08:39:07.642Z,26.57
2022-10-18T08:42:02.454Z,26.73
2022-10-18T08:44:33.630Z,26.30
2022-10-18T08:47:06.868Z,29.27
2022-10-18T08:49:45.547Z,28.90
2022-10-18T08:52:20.404Z,26.30
2022-10-18T08:54:56.909Z,25.67
2022-10-18T08:57:25.435Z,25.93
2022-10-18T08:59:53.799Z,26.80
2022-10-18T09:02:35.997Z,26.30
2022-10-18T09:05:16.129Z,26.47
2022-10-18T09:07:57.420Z,24.37
2022-10-18T09:10:42.035Z,25.57
2022-10-18T09:13:38.729Z,23.97
2022-10-18T09:16:09.545Z,24.40
2022-10-18T09:18:52.900Z,25.60
2022-10-18T09:21:25.013Z,25.93
2022-10-18T09:24:04.325Z,25.47
2022-10-18T09:26:41.168Z,26.00
2022-10-18T09:29:28.321Z,23.63
2022-10-18T09:32:05.618Z,22.73
2022-10-18T09:34:41.031Z,25.80
2022-10-18T09:37:14.651Z,24.70
2022-10-18T09:39:43.828Z,24.87
2022-10-18T09:42:17.879Z,26.67
2022-10-18T09:44:52.380Z,28.47
2022-10-18T09:47:25.841Z,26.93
2022-10-18T09:50:00.357Z,27.00
2022-10-18T09:52:35.270Z,27.87
2022-10-18T09:55:09.975Z,29.00
2022-10-18T09:57:45.531Z,29.40
2022-10-18T10:00:18.150Z,26.67
2022-10-18T10:02:46.679Z,26.90
2022-10-18T10:05:17.235Z,28.20
2022-10-18T10:07:48.335Z,33.70
2022-10-18T10:10:21.661Z,31.20
2022-10-18T10:13:03.108Z,32.67
2022-10-18T10:15:35.484Z,34.20
2022-10-18T10:18:20.654Z,32.30
2022-10-18T10:20:53.504Z,32.43
2022-10-18T10:23:26.106Z,35.70
2022-10-18T10:25:56.401Z,34.90
2022-10-18T10:28:29.083Z,31.73
2022-10-18T10:31:19.574Z,34.67
2022-10-18T10:33:48.788Z,32.83
2022-10-18T10:36:21.984Z,34.50
2022-10-18T10:39:05.116Z,37.57
2022-10-18T10:41:33.870Z,35.00
2022-10-18T10:44:05.397Z,35.03
2022-10-18T10:46:37.729Z,35.73
2022-10-18T10:52:08.443Z,35.13
2022-10-18T10:54:51.253Z,38.40
2022-10-18T10:57:25.016Z,35.77
2022-10-18T10:59:55.180Z,38.37
2022-10-18T11:02:27.227Z,38.33
2022-10-18T11:04:57.822Z,37.83
2022-10-18T11:07:35.698Z,39.00
2022-10-18T11:10:12.247Z,39.80
2022-10-18T11:12:43.980Z,38.50
2022-10-18T11:15:28.631Z,36.97
2022-10-18T11:18:05.685Z,36.13
2022-10-18T11:20:39.189Z,36.70
2022-10-18T11:23:11.797Z,38.37
2022-10-18T11:26:00.586Z,37.27
2022-10-18T11:28:41.792Z,37.20
2022-10-18T11:31:17.671Z,36.40
2022-10-18T11:34:09.645Z,34.60
2022-10-18T11:36:54.682Z,36.53
2022-10-18T11:39:31.124Z,37.77
2022-10-18T11:42:05.635Z,36.30
2022-10-18T11:44:40.180Z,37.60
2022-10-18T11:47:16.315Z,37.80
2022-10-18T11:49:58.124Z,36.43
2022-10-18T11:52:33.041Z,34.57
2022-10-18T11:55:30.291Z,34.60
2022-10-18T11:58:09.010Z,35.57
2022-10-18T12:00:47.087Z,40.20
2022-10-18T12:03:23.571Z,38.60
2022-10-18T12:05:54.012Z,39.70
2022-10-18T12:08:26.784Z,41.60
2022-10-18T12:11:04.935Z,35.90
2022-10-18T12:13:40.067Z,40.93
2022-10-18T12:16:11.816Z,44.50
2022-10-18T12:18:49.722Z,43.30
2022-10-18T12:21:25.433Z,42.10
2022-10-18T12:23:57.522Z,44.60
2022-10-18T12:26:29.202Z,41.20
2022-10-18T12:29:15.074Z,40.90
2022-10-18T12:31:47.281Z,43.90
2022-10-18T12:34:30.769Z,41.13
2022-10-18T12:37:20.679Z,37.10
2022-10-18T12:40:09.353Z,41.67
2022-10-18T12:42:45.101Z,40.90
2022-10-18T12:45:28.883Z,39.97
2022-10-18T12:48:01.320Z,40.80
2022-10-18T12:50:35.986Z,40.30
2022-10-18T12:53:07.772Z,36.30
2022-10-18T12:55:38.156Z,38.50
2022-10-18T12:58:28.052Z,38.73
2022-10-18T13:00:58.439Z,38.73
2022-10-18T13:03:39.268Z,42.70
2022-10-18T13:06:08.048Z,42.77
2022-10-18T13:08:42.513Z,39.90
2022-10-18T13:11:33.337Z,36.43
2022-10-18T13:14:35.888Z,36.77
2022-10-18T13:17:16.000Z,37.67
2022-10-18T13:20:20.641Z,38.93
2022-10-18T13:23:02.220Z,36.97
2022-10-18T13:25:42.196Z,38.17
2022-10-18T13:28:22.682Z,35.60
2022-10-18T13:30:58.671Z,37.07
2022-10-18T13:33:35.822Z,35.00
2022-10-18T13:36:07.416Z,32.47
2022-10-18T13:39:02.976Z,29.27
2022-10-18T13:41:35.333Z,34.77
2022-10-18T13:44:28.398Z,35.60
2022-10-18T13:47:38.751Z,32.17
2022-10-18T13:50:35.342Z,28.40
2022-10-18T13:53:32.507Z,29.53
2022-10-18T13:56:49.837Z,26.50
2022-10-18T13:59:33.942Z,25.70
2022-10-18T14:02:49.710Z,31.97
2022-10-18T14:05:28.300Z,30.93
2022-10-18T14:08:06.878Z,30.77
2022-10-18T14:11:01.452Z,33.20
2022-10-18T14:13:39.251Z,30.30
2022-10-18T14:16:19.264Z,28.07
2022-10-18T14:18:52.630Z,29.53
2022-10-18T14:21:31.504Z,26.10
2022-10-18T14:24:00.405Z,28.70
2022-10-18T14:26:29.354Z,30.60
2022-10-18T14:29:05.681Z,26.90
2022-10-18T14:31:34.477Z,26.43
2022-10-18T14:34:03.681Z,23.60
2022-10-18T14:36:40.819Z,24.30
2022-10-18T14:39:19.582Z,24.50
2022-10-18T14:41:51.133Z,26.20
2022-10-18T14:44:21.831Z,27.50
2022-10-18T14:46:52.782Z,23.20
2022-10-18T14:49:22.487Z,25.87
2022-10-18T14:51:54.584Z,23.70
2022-10-18T14:54:30.693Z,20.93
2022-10-18T14:57:01.384Z,21.50
2022-10-18T14:59:33.459Z,22.90
2022-10-18T15:02:05.112Z,20.20
2022-10-18T15:04:33.848Z,20.63
2022-10-18T15:07:06.099Z,18.33
2022-10-18T15:09:38.040Z,21.97
2022-10-18T15:12:08.431Z,22.20
2022-10-18T15:14:37.863Z,24.70
2022-10-18T15:17:13.412Z,24.13
2022-10-18T15:19:54.048Z,25.50
2022-10-18T15:22:31.887Z,26.27
2022-10-18T15:25:15.789Z,32.60
2022-10-18T15:27:46.963Z,32.60
2022-10-18T15:30:20.866Z,31.53
2022-10-18T15:32:53.063Z,28.77
2022-10-18T15:35:26.515Z,28.43
2022-10-18T15:37:58.268Z,28.63
2022-10-18T15:40:38.558Z,27.90
2022-10-18T15:43:22.788Z,27.10
2022-10-18T15:45:53.063Z,26.30
2022-10-18T15:48:24.993Z,26.80
2022-10-18T15:50:55.186Z,27.40
2022-10-18T15:53:35.716Z,23.70
2022-10-18T15:56:07.281Z,24.30
2022-10-18T15:58:44.348Z,24.40
2022-10-18T16:01:17.899Z,23.17
2022-10-18T16:03:47.878Z,22.53
2022-10-18T16:06:18.403Z,22.27
2022-10-18T16:08:50.604Z,23.07
2022-10-18T16:11:21.679Z,21.57
2022-10-18T16:13:50.392Z,22.87
2022-10-18T16:16:22.155Z,20.77
2022-10-18T16:18:50.829Z,21.83
2022-10-18T16:21:21.575Z,22.50
2022-10-18T16:23:51.510Z,23.50
2022-10-18T16:26:21.402Z,21.80
2022-10-18T16:28:50.524Z,23.10
2022-10-18T16:31:21.846Z,20.60
2022-10-18T16:33:51.204Z,22.17
2022-10-18T16:36:22.303Z,20.87
2022-10-18T16:38:52.779Z,23.40
2022-10-18T16:41:21.211Z,23.27
2022-10-18T16:43:50.981Z,23.47
2022-10-18T16:46:21.712Z,24.20
2022-10-18T16:48:51.729Z,25.60
2022-10-18T16:51:20.489Z,24.42
2022-10-18T16:53:49.213Z,24.77
2022-10-18T16:56:22.043Z,24.00
2022-10-18T16:58:50.958Z,24.30
2022-10-18T17:01:21.682Z,24.00
2022-10-18T17:03:52.111Z,23.13
2022-10-18T17:06:22.979Z,24.08
2022-10-18T17:08:51.797Z,26.07
2022-10-18T17:11:23.648Z,24.57
2022-10-18T17:13:52.432Z,23.80
2022-10-18T17:16:25.323Z,24.07
2022-10-18T17:18:53.726Z,23.67
2022-10-18T17:21:22.327Z,25.17
2022-10-18T17:23:50.877Z,24.55
2022-10-18T17:26:30.180Z,25.25
2022-10-18T17:29:01.702Z,26.30
2022-10-18T17:31:31.587Z,24.17
2022-10-18T17:34:01.891Z,24.45
2022-10-18T17:36:30.948Z,23.70
2022-10-18T17:38:59.475Z,24.80
2022-10-18T17:41:29.327Z,24.50
2022-10-18T17:43:57.915Z,23.87
2022-10-18T17:46:26.325Z,22.70
2022-10-18T17:48:55.096Z,23.83
2022-10-18T17:51:23.843Z,24.65
2022-10-18T17:53:52.355Z,24.73
2022-10-18T17:56:21.052Z,24.40
2022-10-18T17:58:53.685Z,23.92
2022-10-18T18:01:24.081Z,24.02
2022-10-18T18:03:57.737Z,24.90
2022-10-18T18:06:30.990Z,23.80
2022-10-18T18:09:00.370Z,23.40
2022-10-18T18:11:29.578Z,22.47
2022-10-18T18:13:59.536Z,22.53
2022-10-18T18:16:30.276Z,24.13
2022-10-18T18:18:59.498Z,22.80
2022-10-18T18:21:28.561Z,21.63
2022-10-18T18:23:57.320Z,20.57
2022-10-18T18:26:25.799Z,22.80
2022-10-18T18:28:54.595Z,22.67
2022-10-18T18:31:25.994Z,23.47
2022-10-18T18:33:56.271Z,22.70
2022-10-18T18:36:28.885Z,23.07
2022-10-18T18:38:57.947Z,22.57
2022-10-18T18:41:28.194Z,23.20
2022-10-18T18:43:59.072Z,22.67
2022-10-18T18:46:30.652Z,21.63
2022-10-18T18:48:59.338Z,22.80
2022-10-18T18:51:27.745Z,23.80
2022-10-18T18:53:56.364Z,22.80
2022-10-18T18:56:26.374Z,21.97
2022-10-18T18:58:55.490Z,22.70
2022-10-18T19:01:26.800Z,22.10
2022-10-18T19:03:57.895Z,22.60
2022-10-18T19:06:28.465Z,23.07
2022-10-18T19:09:01.148Z,22.47
2022-10-18T19:11:32.355Z,22.70
2022-10-18T19:14:01.247Z,25.97
2022-10-18T19:16:31.132Z,25.37
2022-10-18T19:19:03.193Z,23.20
2022-10-18T19:21:34.100Z,24.30
2022-10-18T19:24:03.699Z,25.37
2022-10-18T19:26:35.697Z,22.57
2022-10-18T19:29:09.606Z,24.67
2022-10-18T19:31:39.474Z,23.43
2022-10-18T19:34:12.639Z,24.87
2022-10-18T19:36:43.202Z,25.63
2022-10-18T19:39:16.740Z,24.47
2022-10-18T19:41:46.231Z,25.10
2022-10-18T19:44:15.266Z,24.87
2022-10-18T19:46:45.481Z,25.17
2022-10-18T19:49:16.095Z,24.40
2022-10-18T19:51:45.439Z,25.07
2022-10-18T19:54:15.729Z,25.17
2022-10-18T19:56:45.477Z,25.60
2022-10-18T19:59:17.045Z,26.07
2022-10-18T20:01:46.686Z,25.83
2022-10-18T20:04:17.518Z,26.07
2022-10-18T20:06:46.682Z,26.73
2022-10-18T20:09:19.521Z,26.07
2022-10-18T20:11:49.975Z,26.03
2022-10-18T20:14:18.974Z,25.83
2022-10-18T20:16:47.500Z,25.70
2022-10-18T20:19:17.923Z,26.73
2022-10-18T20:21:46.948Z,27.20
2022-10-18T20:24:15.942Z,27.17
2022-10-18T20:26:45.016Z,28.00
2022-10-18T20:29:14.228Z,27.43
2022-10-18T20:31:43.275Z,27.77
2022-10-18T20:34:13.458Z,26.20
2022-10-18T20:36:44.274Z,27.07
2022-10-18T20:39:12.705Z,25.97
2022-10-18T20:41:42.173Z,27.67
2022-10-18T20:44:16.084Z,26.27
2022-10-18T20:46:45.130Z,26.80
2022-10-18T20:49:15.709Z,27.30
2022-10-18T20:51:46.032Z,26.50
2022-10-18T20:54:14.516Z,26.80
2022-10-18T20:56:43.091Z,29.13
2022-10-18T20:59:11.652Z,28.60
2022-10-18T21:01:40.550Z,25.17
2022-10-18T21:04:10.644Z,29.00
2022-10-18T21:06:41.357Z,27.37
2022-10-18T21:09:14.722Z,29.87
2022-10-18T21:11:45.008Z,28.10
2022-10-18T21:14:14.886Z,28.67
2022-10-18T21:16:44.020Z,28.30
2022-10-18T21:19:14.905Z,29.30
2022-10-18T21:21:45.058Z,27.60
2022-10-18T21:24:15.524Z,28.20
2022-10-18T21:26:43.919Z,28.47
2022-10-18T21:29:15.974Z,28.30
2022-10-18T21:31:47.015Z,29.13
2022-10-18T21:34:17.423Z,29.40
2022-10-18T21:36:47.168Z,31.00
2022-10-18T21:39:18.943Z,30.50
2022-10-18T21:41:47.679Z,31.93
2022-10-18T21:44:16.916Z,31.80
2022-10-18T21:46:46.841Z,32.07
2022-10-18T21:49:16.698Z,31.60
2022-10-18T21:51:45.806Z,32.70
2022-10-18T21:54:17.184Z,32.17
2022-10-18T21:56:45.523Z,31.80
2022-10-18T21:59:14.310Z,30.80
2022-10-18T22:01:43.669Z,31.90
2022-10-18T22:04:20.748Z,31.13
2022-10-18T22:06:49.080Z,32.60
2022-10-18T22:09:19.546Z,32.37
2022-10-18T22:11:50.955Z,32.50
2022-10-18T22:14:19.406Z,36.17
2022-10-18T22:16:47.785Z,35.77
2022-10-18T22:19:16.380Z,35.47
2022-10-18T22:21:44.779Z,33.57
2022-10-18T22:24:13.080Z,33.33
2022-10-18T22:26:44.816Z,35.13
2022-10-18T22:29:15.599Z,36.57
2022-10-18T22:31:46.637Z,34.67
2022-10-18T22:34:17.056Z,34.93
2022-10-18T22:36:46.001Z,35.47
2022-10-18T22:39:15.710Z,35.73
2022-10-18T22:41:45.564Z,33.20
2022-10-18T22:44:15.721Z,32.33
2022-10-18T22:46:44.371Z,33.83
2022-10-18T22:49:13.420Z,33.57
2022-10-18T22:51:41.876Z,32.73
2022-10-18T22:54:10.576Z,34.33
2022-10-18T22:56:39.170Z,33.70
2022-10-18T22:59:08.884Z,33.87
2022-10-18T23:01:37.511Z,34.10
2022-10-18T23:04:05.911Z,32.00
2022-10-18T23:06:36.394Z,36.13
2022-10-18T23:09:07.220Z,35.90
2022-10-18T23:11:37.492Z,38.37
2022-10-18T23:14:08.582Z,37.47
2022-10-18T23:16:37.219Z,35.80
2022-10-18T23:19:05.682Z,36.17
2022-10-18T23:21:35.465Z,33.30
2022-10-18T23:24:03.929Z,34.87
2022-10-18T23:26:34.951Z,35.37
2022-10-18T23:29:03.501Z,34.13
2022-10-18T23:31:34.503Z,34.50
2022-10-18T23:34:05.146Z,36.20
2022-10-18T23:36:35.086Z,33.47
2022-10-18T23:39:04.323Z,32.60
2022-10-18T23:41:32.735Z,35.10
2022-10-18T23:44:02.420Z,33.83
2022-10-18T23:46:30.823Z,31.80
2022-10-18T23:49:00.601Z,32.23
2022-10-18T23:51:29.156Z,32.67
2022-10-18T23:53:57.515Z,32.67
2022-10-18T23:56:25.895Z,32.73
2022-10-18T23:58:54.270Z,32.90
